Time;durP1;ratioP1;P1;durP2;ratioP2;P2;SDS_P1;SDS_P2;PMS_P1;PMS_P2;Temp;Humidity;BMP_temperature;BMP_pressure;BME280_temperature;BME280_humidity;BME280_pressure;Samples;Min_cycle;Max_cycle;Signal;HPM_P1;HPM_P2
2022/09/04 00:01:56;;;;;;;9.68;6.68;;;;;;;9.45;68.24;100057.31;4908931;28;20051;-69
2022/09/04 00:04:45;;;;;;;8.93;6.00;;;;;;;9.48;68.24;100063.28;4953664;28;20433;-68
2022/09/04 00:07:27;;;;;;;9.15;5.22;;;;;;;9.47;68.34;100060.75;4921301;28;20719;-72
2022/09/04 00:10:24;;;;;;;8.48;4.95;;;;;;;9.44;68.25;100064.44;4937412;28;20042;-72
2022/09/04 00:12:55;;;;;;;8.27;5.55;;;;;;;9.39;68.73;100065.66;4937873;28;20067;-73
2022/09/04 00:15:33;;;;;;;6.63;4.53;;;;;;;9.37;68.33;100068.41;4953759;28;20176;-71
2022/09/04 00:18:15;;;;;;;10.00;5.55;;;;;;;9.37;68.68;100071.06;4944047;28;20560;-69
2022/09/04 00:21:01;;;;;;;6.50;4.75;;;;;;;9.36;68.76;100066.72;4973182;28;20125;-70
2022/09/04 00:24:02;;;;;;;10.30;5.72;;;;;;;9.35;68.89;100070.31;4938662;28;20621;-72
2022/09/04 00:26:49;;;;;;;6.32;4.43;;;;;;;9.33;69.03;100066.88;4973165;28;20468;-72
2022/09/04 00:29:20;;;;;;;8.75;5.30;;;;;;;9.27;69.09;100067.22;4956426;28;20531;-72
2022/09/04 00:32:05;;;;;;;9.30;5.22;;;;;;;9.24;69.15;100061.25;4973061;28;20077;-72
2022/09/04 00:34:48;;;;;;;10.25;5.10;;;;;;;9.23;69.35;100056.88;4972495;28;20621;-73
2022/09/04 00:37:17;;;;;;;8.32;5.28;;;;;;;9.17;69.33;100067.88;4985361;28;20051;-74
2022/09/04 00:39:53;;;;;;;7.85;4.68;;;;;;;9.18;69.30;100066.94;4996885;28;20041;-71
2022/09/04 00:42:37;;;;;;;10.07;5.63;;;;;;;9.17;69.31;100060.75;5013930;28;20053;-72
2022/09/04 00:45:26;;;;;;;9.45;5.75;;;;;;;9.16;69.35;100066.16;5030372;28;20040;-73
2022/09/04 00:48:14;;;;;;;10.35;6.65;;;;;;;9.10;69.73;100062.94;5013668;28;20049;-77
2022/09/04 00:51:01;;;;;;;16.35;9.70;;;;;;;9.02;70.01;100059.88;5014909;28;20502;-76
2022/09/04 00:53:40;;;;;;;11.57;8.32;;;;;;;9.02;70.13;100057.22;5016989;28;20053;-74
2022/09/04 00:56:26;;;;;;;13.32;8.98;;;;;;;8.99;70.24;100060.03;5033664;28;20051;-74
2022/09/04 00:59:09;;;;;;;12.98;8.60;;;;;;;8.97;70.01;100058.41;5035812;28;20526;-77
2022/09/04 01:01:34;;;;;;;16.45;9.90;;;;;;;8.87;69.76;100063.41;5019268;28;20047;-74
2022/09/04 01:03:59;;;;;;;13.07;9.32;;;;;;;8.84;69.83;100063.56;5054254;28;20048;-74
2022/09/04 01:06:48;;;;;;;14.27;9.38;;;;;;;8.88;69.83;100062.47;5054735;28;20093;-72
2022/09/04 01:09:25;;;;;;;14.75;7.95;;;;;;;8.80;70.15;100066.50;5004068;28;20153;-74
2022/09/04 01:12:11;;;;;;;14.52;8.15;;;;;;;8.85;69.99;100064.44;5053890;28;20055;-74
2022/09/04 01:14:55;;;;;;;15.00;7.40;;;;;;;8.74;70.38;100068.56;5045811;28;20048;-73
2022/09/04 01:17:21;;;;;;;15.93;7.28;;;;;;;8.71;70.57;100070.53;5068833;28;20090;-71
2022/09/04 01:20:02;;;;;;;14.60;7.88;;;;;;;8.72;71.23;100077.56;5038521;28;20067;-75
2022/09/04 01:23:03;;;;;;;13.15;6.43;;;;;;;8.72;70.95;100069.59;5036937;28;20131;-73
2022/09/04 01:25:44;;;;;;;14.85;7.32;;;;;;;8.62;70.90;100071.06;5018167;28;20035;-70
2022/09/04 01:28:19;;;;;;;15.85;7.13;;;;;;;8.63;71.02;100070.13;5035420;28;20047;-69
2022/09/04 01:30:58;;;;;;;10.68;6.35;;;;;;;8.64;71.04;100075.34;5054234;28;20067;-69
2022/09/04 01:33:34;;;;;;;12.00;7.03;;;;;;;8.58;71.29;100069.50;5057270;28;20051;-70
2022/09/04 01:36:17;;;;;;;11.57;6.05;;;;;;;8.58;71.58;100067.72;5040660;28;20418;-72
2022/09/04 01:38:50;;;;;;;8.77;6.13;;;;;;;8.53;71.74;100068.94;5059353;28;20042;-78
2022/09/04 01:41:29;;;;;;;14.95;8.27;;;;;;;8.49;71.57;100062.91;5040901;28;20090;-77
2022/09/04 01:43:54;;;;;;;9.77;6.70;;;;;;;8.44;71.79;100067.66;5023853;28;20043;-70
2022/09/04 01:46:38;;;;;;;10.80;6.82;;;;;;;8.49;72.33;100064.72;5058351;28;20126;-75
2022/09/04 01:49:36;;;;;;;9.85;6.82;;;;;;;8.49;71.83;100064.72;5040731;28;20135;-75
2022/09/04 01:52:10;;;;;;;13.70;6.22;;;;;;;8.42;72.06;100060.69;4996487;28;20041;-67
2022/09/04 01:54:53;;;;;;;12.93;6.68;;;;;;;8.42;71.73;100058.03;4995241;28;20816;-73
2022/09/04 01:57:21;;;;;;;10.30;6.63;;;;;;;8.34;71.86;100054.03;4992919;28;20056;-68
2022/09/04 02:00:00;;;;;;;11.18;5.65;;;;;;;8.31;72.54;100056.84;4968314;28;20056;-69
2022/09/04 02:02:40;;;;;;;10.43;6.32;;;;;;;8.30;72.55;100051.59;4967147;28;20054;-68
2022/09/04 02:05:44;;;;;;;14.35;5.43;;;;;;;8.27;72.43;100049.94;4974063;28;20049;-69
2022/09/04 02:08:21;;;;;;;7.20;5.25;;;;;;;8.26;72.13;100048.22;4899068;29;20043;-71
2022/09/04 02:11:07;;;;;;;8.48;5.70;;;;;;;8.24;72.25;100041.31;4891349;29;20044;-70
2022/09/04 02:13:52;;;;;;;10.18;6.18;;;;;;;8.20;71.89;100042.41;4901577;29;20035;-68
2022/09/04 02:16:29;;;;;;;8.13;5.63;;;;;;;8.21;72.41;100047.66;4908391;29;20047;-69
2022/09/04 02:19:12;;;;;;;9.20;5.63;;;;;;;8.18;72.82;100047.81;4913738;29;20051;-67
2022/09/04 02:21:43;;;;;;;10.60;6.18;;;;;;;8.07;72.40;100050.19;4905875;29;20066;-66
2022/09/04 02:24:27;;;;;;;11.95;6.88;;;;;;;8.03;72.38;100044.19;4878291;29;20035;-69
2022/09/04 02:27:11;;;;;;;8.07;5.13;;;;;;;8.05;72.72;100038.78;4916797;28;20058;-68
2022/09/04 02:29:45;;;;;;;11.05;5.68;;;;;;;8.05;72.70;100040.59;4957623;28;20042;-71
2022/09/04 02:32:19;;;;;;;12.07;6.27;;;;;;;8.00;72.87;100038.22;4973752;28;20152;-66
2022/09/04 02:35:11;;;;;;;9.73;4.97;;;;;;;8.01;72.73;100046.06;4957354;28;20046;-67
2022/09/04 02:38:14;;;;;;;9.05;5.53;;;;;;;8.02;72.46;100052.22;4951994;28;20046;-67
2022/09/04 02:40:59;;;;;;;10.60;4.72;;;;;;;7.97;72.92;100049.00;4971344;28;20053;-66
2022/09/04 02:43:34;;;;;;;;;;;;;;;8.09;71.42;100056.28;4990280;28;20140;-65
2022/09/04 02:46:06;;;;;;;7.18;4.38;;;;;;;8.00;71.56;100051.47;5023812;28;19916;-67
2022/09/04 02:48:56;;;;;;;7.20;4.65;;;;;;;7.99;72.13;100060.38;5024779;28;20041;-68
2022/09/04 02:52:06;;;;;;;15.18;5.95;;;;;;;7.99;72.10;100057.72;4991968;28;20450;-64
2022/09/04 02:54:47;;;;;;;8.23;5.82;;;;;;;7.96;73.17;100060.53;4932921;28;20054;-66
2022/09/04 02:57:39;;;;;;;11.10;5.28;;;;;;;7.92;72.60;100065.16;4939837;28;20664;-64
2022/09/04 03:00:18;;;;;;;10.38;5.75;;;;;;;7.89;72.61;100067.13;4937432;28;20129;-65
2022/09/04 03:02:59;;;;;;;14.45;5.15;;;;;;;7.92;73.34;100072.25;4943788;28;20042;-68
2022/09/04 03:05:43;;;;;;;14.88;6.20;;;;;;;7.92;73.38;100077.56;4935858;28;20062;-71
2022/09/04 03:08:17;;;;;;;11.57;6.23;;;;;;;7.92;73.78;100072.25;4935868;28;20046;-69
2022/09/04 03:10:56;;;;;;;5.78;4.43;;;;;;;7.98;73.18;100067.50;4938352;28;20049;-70
2022/09/04 03:13:31;;;;;;;7.97;4.95;;;;;;;8.03;73.64;100068.09;4941776;28;20565;-70
2022/09/04 03:16:15;;;;;;;7.45;4.82;;;;;;;8.16;74.00;100076.25;4949627;28;20101;-73
2022/09/04 03:19:01;;;;;;;13.68;4.55;;;;;;;8.38;72.97;100071.50;4935456;28;20061;-72
2022/09/04 03:21:34;;;;;;;9.82;6.22;;;;;;;8.52;72.85;100068.06;4936166;28;20055;-71
2022/09/04 03:24:02;;;;;;;9.80;6.85;;;;;;;8.66;72.10;100067.28;4919701;28;20548;-71
2022/09/04 03:26:38;;;;;;;15.40;6.90;;;;;;;8.85;71.91;100067.94;5035951;28;20052;-70
2022/09/04 03:29:29;;;;;;;12.38;7.78;;;;;;;9.03;71.14;100072.19;5018443;28;20048;-72
2022/09/04 03:32:10;;;;;;;12.90;8.50;;;;;;;9.26;70.68;100064.66;5036588;28;20051;-74
2022/09/04 03:35:01;;;;;;;13.52;8.40;;;;;;;9.49;69.67;100064.16;5001893;28;20161;-75
2022/09/04 03:37:55;;;;;;;13.70;9.18;;;;;;;9.68;68.93;100062.09;5034708;28;20051;-75
2022/09/04 03:40:32;;;;;;;10.75;8.18;;;;;;;9.81;68.23;100068.38;5035808;28;20043;-74
2022/09/04 03:43:00;;;;;;;10.30;7.13;;;;;;;9.94;67.54;100060.47;5018320;28;20044;-75
2022/09/04 03:45:27;;;;;;;11.15;6.40;;;;;;;10.10;67.01;100058.56;5018011;28;20075;-75
2022/09/04 03:48:01;;;;;;;9.32;5.70;;;;;;;10.26;66.05;100058.50;5048883;28;20142;-73
2022/09/04 03:50:39;;;;;;;10.00;5.40;;;;;;;10.46;65.82;100066.06;5004832;28;20105;-73
2022/09/04 03:53:19;;;;;;;6.53;4.68;;;;;;;10.67;65.34;100066.50;5021871;28;20282;-74
2022/09/04 03:56:06;;;;;;;8.32;5.43;;;;;;;10.85;64.43;100064.41;5055791;28;20127;-68
2022/09/04 03:58:45;;;;;;;7.75;5.32;;;;;;;10.96;63.66;100064.56;5055758;28;20063;-68
2022/09/04 04:01:18;;;;;;;9.50;5.78;;;;;;;11.16;63.10;100061.44;5036842;28;20047;-68
2022/09/04 04:03:49;;;;;;;10.63;5.03;;;;;;;11.29;62.49;100059.63;5036859;28;20059;-68
2022/09/04 04:06:38;;;;;;;10.05;6.75;;;;;;;11.47;62.34;100059.34;5019964;28;20040;-68
2022/09/04 04:09:32;;;;;;;8.80;6.85;;;;;;;11.53;60.83;100074.94;5036685;28;20077;-68
2022/09/04 04:12:11;;;;;;;13.45;6.85;;;;;;;11.71;60.54;100067.50;5034679;28;20059;-66
2022/09/04 04:14:50;;;;;;;10.07;7.10;;;;;;;11.81;60.65;100065.94;5036899;28;20056;-66
2022/09/04 04:17:52;;;;;;;9.50;6.75;;;;;;;11.96;60.14;100059.53;5037081;28;20036;-66
2022/09/04 04:20:23;;;;;;;8.90;6.25;;;;;;;12.07;59.86;100062.28;5040243;28;20046;-67
2022/09/04 04:23:06;;;;;;;8.18;5.43;;;;;;;12.16;58.81;100060.78;5006842;28;20042;-67
2022/09/04 04:25:48;;;;;;;10.77;5.70;;;;;;;12.35;57.82;100058.47;5024984;28;20048;-67
2022/09/04 04:28:59;;;;;;;8.48;4.95;;;;;;;12.60;58.45;100058.41;5061188;28;20441;-68
2022/09/04 04:31:33;;;;;;;8.73;5.20;;;;;;;12.66;57.22;100054.41;4996053;28;20069;-67
2022/09/04 04:34:18;;;;;;;;;;;;;;;12.92;57.48;100053.34;4979984;28;20053;-69
2022/09/04 04:37:10;;;;;;;8.95;5.70;;;;;;;13.01;55.68;100065.19;4996213;28;20020;-68
2022/09/04 04:39:43;;;;;;;8.88;5.63;;;;;;;12.97;55.44;100050.34;5000622;28;20048;-66
2022/09/04 04:42:42;;;;;;;10.27;6.05;;;;;;;13.08;54.95;100051.25;4984819;28;20116;-68
2022/09/04 04:45:51;;;;;;;7.95;5.82;;;;;;;13.15;55.14;100050.81;5000752;28;20412;-68
2022/09/04 04:48:35;;;;;;;10.18;6.22;;;;;;;13.23;54.84;100054.59;5001290;28;20137;-67
2022/09/04 04:51:39;;;;;;;8.52;5.85;;;;;;;13.39;54.96;100048.94;4997854;28;20037;-67
2022/09/04 04:54:48;;;;;;;10.02;5.55;;;;;;;13.57;53.51;100052.00;4971513;28;20124;-67
2022/09/04 04:57:32;;;;;;;7.53;4.50;;;;;;;13.95;53.59;100049.03;4929996;28;20115;-73
2022/09/04 05:00:02;;;;;;;7.28;4.68;;;;;;;14.11;51.60;100050.34;4900453;29;20055;-72
2022/09/04 05:02:41;;;;;;;7.88;5.10;;;;;;;14.35;51.09;100052.06;4915367;29;20070;-72
2022/09/04 05:05:23;;;;;;;10.52;6.47;;;;;;;14.57;50.47;100052.06;4915366;29;20057;-74
2022/09/04 05:08:08;;;;;;;14.32;5.40;;;;;;;14.67;48.74;100058.38;4945972;28;20050;-67
2022/09/04 05:10:40;;;;;;;8.57;4.95;;;;;;;14.62;49.49;100054.38;4924798;28;20116;-67
2022/09/04 05:13:16;;;;;;;9.75;5.30;;;;;;;14.73;49.21;100057.03;4956905;28;20473;-68
2022/09/04 05:16:13;;;;;;;6.55;4.05;;;;;;;14.86;47.58;100063.09;4924400;28;20054;-68
2022/09/04 05:19:09;;;;;;;5.55;3.05;;;;;;;14.99;47.21;100061.09;4864380;29;20084;-67
2022/09/04 05:21:40;;;;;;;4.45;3.25;;;;;;;14.93;46.59;100056.22;4880343;29;20059;-67
2022/09/04 05:24:29;;;;;;;2.83;2.63;;;;;;;15.16;45.79;100057.00;4864600;29;20154;-68
2022/09/04 05:27:21;;;;;;;3.55;2.75;;;;;;;15.41;44.04;100053.09;4882230;28;20050;-68
2022/09/04 05:30:18;;;;;;;15.00;3.85;;;;;;;15.71;45.11;100053.19;4900990;29;20043;-67
2022/09/04 05:33:10;;;;;;;5.20;2.88;;;;;;;15.91;43.70;100057.69;4914925;29;20114;-75
2022/09/04 05:35:46;;;;;;;2.95;2.58;;;;;;;16.00;43.30;100060.59;4903697;29;20110;-74
2022/09/04 05:38:37;;;;;;;4.50;2.53;;;;;;;16.09;42.86;100070.53;4919736;29;20043;-74
2022/09/04 05:41:37;;;;;;;3.33;2.63;;;;;;;16.41;43.13;100075.75;4902851;29;20055;-73
2022/09/04 05:44:04;;;;;;;3.80;2.70;;;;;;;16.92;41.54;100067.56;4919284;29;20073;-74
2022/09/04 05:47:13;;;;;;;5.22;3.05;;;;;;;17.82;38.53;100067.28;4921362;29;20051;-75
2022/09/04 05:49:48;;;;;;;3.35;2.58;;;;;;;18.79;37.05;100064.03;4919300;29;20109;-75
2022/09/04 05:52:33;;;;;;;3.13;2.67;;;;;;;20.17;36.00;100064.38;4919206;29;20087;-77
2022/09/04 05:55:10;;;;;;;3.45;2.78;;;;;;;21.56;32.39;100069.22;4938128;28;20058;-70
2022/09/04 05:57:47;;;;;;;4.35;2.78;;;;;;;22.75;31.29;100072.88;4956924;28;20050;-68
2022/09/04 06:00:15;;;;;;;5.47;3.67;;;;;;;23.69;29.00;100071.81;4927585;28;20065;-70
2022/09/04 06:02:42;;;;;;;2.42;2.22;;;;;;;24.44;27.25;100071.72;4915132;28;20043;-67
2022/09/04 06:05:41;;;;;;;5.10;3.38;;;;;;;25.07;26.94;100078.41;4921392;28;20055;-69
2022/09/04 06:08:12;;;;;;;4.45;2.80;;;;;;;25.72;25.53;100072.00;4920621;28;20042;-68
2022/09/04 06:10:51;;;;;;;3.72;3.35;;;;;;;26.24;25.12;100077.00;4937185;28;20062;-68
2022/09/04 06:13:30;;;;;;;5.63;2.75;;;;;;;26.95;24.51;100073.03;4936721;28;20553;-69
2022/09/04 06:16:03;;;;;;;2.75;2.50;;;;;;;27.66;22.96;100081.59;4904793;28;20074;-68
2022/09/04 06:18:48;;;;;;;3.60;2.78;;;;;;;28.29;21.66;100082.03;4936800;28;20125;-68
2022/09/04 06:21:31;;;;;;;3.78;2.72;;;;;;;28.69;21.61;100087.41;4936566;28;20125;-68
2022/09/04 06:24:16;;;;;;;5.05;2.20;;;;;;;29.24;20.98;100085.91;4996183;28;20106;-69
2022/09/04 06:26:50;;;;;;;2.55;2.35;;;;;;;29.81;20.04;100086.81;4924740;28;20053;-68
2022/09/04 06:29:35;;;;;;;2.97;2.67;;;;;;;30.32;19.43;100086.63;4955985;28;20571;-69
2022/09/04 06:32:27;;;;;;;5.78;3.05;;;;;;;30.95;18.96;100083.56;4955415;28;20582;-67
2022/09/04 06:35:02;;;;;;;3.15;2.85;;;;;;;31.41;18.61;100085.72;4939216;28;20046;-68
2022/09/04 06:37:31;;;;;;;2.65;2.45;;;;;;;31.89;17.94;100091.16;4955248;28;20060;-68
2022/09/04 06:40:09;;;;;;;3.47;3.03;;;;;;;32.30;17.07;100083.88;4939763;28;20042;-68
2022/09/04 06:42:53;;;;;;;4.15;3.15;;;;;;;32.73;17.09;100083.50;4955288;28;20121;-69
2022/09/04 06:45:40;;;;;;;5.28;3.50;;;;;;;33.17;16.12;100090.22;4939054;28;20061;-69
2022/09/04 06:48:27;;;;;;;3.13;2.90;;;;;;;33.65;15.54;100083.38;4938913;28;20057;-68
2022/09/04 06:51:09;;;;;;;5.20;3.15;;;;;;;33.86;15.50;100088.22;4939051;28;20050;-68
2022/09/04 06:53:56;;;;;;;3.92;2.58;;;;;;;34.50;15.38;100089.53;4938996;28;20050;-69
2022/09/04 06:56:29;;;;;;;3.13;2.92;;;;;;;34.84;15.05;100095.81;4923032;28;20133;-69
2022/09/04 06:59:22;;;;;;;4.57;3.13;;;;;;;35.52;15.19;100090.81;4952277;28;20057;-68
2022/09/04 07:02:05;;;;;;;5.82;3.10;;;;;;;35.90;14.45;100139.72;4958541;28;20049;-69
2022/09/04 07:04:46;;;;;;;3.28;3.03;;;;;;;36.56;14.13;100081.97;5024376;28;20053;-69
2022/09/04 07:07:30;;;;;;;4.90;4.07;;;;;;;37.19;13.48;100080.03;5018646;28;20044;-69
2022/09/04 07:10:15;;;;;;;3.50;3.20;;;;;;;37.94;14.40;100089.63;5018671;28;20045;-69
2022/09/04 07:13:13;;;;;;;3.40;3.20;;;;;;;36.96;13.19;100082.16;5018111;28;20503;-68
2022/09/04 07:15:47;;;;;;;4.90;3.05;;;;;;;37.06;13.34;100079.41;4939043;28;20065;-75
2022/09/04 07:18:26;;;;;;;3.17;2.95;;;;;;;36.94;13.16;100089.09;4939232;28;20046;-69
2022/09/04 07:20:54;;;;;;;2.97;2.78;;;;;;;35.59;13.74;100075.63;4954587;28;20161;-69
2022/09/04 07:23:31;;;;;;;3.65;3.30;;;;;;;35.22;14.19;100069.09;4954888;28;20046;-69
2022/09/04 07:26:16;;;;;;;4.63;3.88;;;;;;;35.36;13.97;100062.06;4938590;28;20121;-70
2022/09/04 07:28:58;;;;;;;3.10;2.90;;;;;;;35.84;13.63;100065.88;4924003;28;20046;-71
2022/09/04 07:31:43;;;;;;;3.30;3.10;;;;;;;36.03;13.35;100069.91;4906862;28;20425;-71
2022/09/04 07:34:17;;;;;;;4.78;3.60;;;;;;;37.03;12.82;100063.28;4939530;28;20042;-71
2022/09/04 07:37:03;;;;;;;3.55;3.10;;;;;;;38.14;12.28;100061.81;4941205;28;20049;-69
2022/09/04 07:40:11;;;;;;;4.78;3.35;;;;;;;39.21;11.96;100065.06;4955447;28;20046;-71
2022/09/04 07:42:44;;;;;;;4.03;3.72;;;;;;;39.95;10.61;100060.41;4910752;28;20076;-72
2022/09/04 07:45:28;;;;;;;3.67;3.47;;;;;;;40.16;10.51;100061.88;4937401;28;20125;-70
2022/09/04 07:48:27;;;;;;;4.35;3.95;;;;;;;41.14;10.09;100071.66;4954182;28;20137;-70
2022/09/04 07:51:03;;;;;;;3.65;3.45;;;;;;;41.53;9.84;100063.81;4904053;28;20418;-71
2022/09/04 07:53:38;;;;;;;4.57;4.22;;;;;;;41.51;9.57;100060.47;4938365;28;20142;-68
2022/09/04 07:56:12;;;;;;;4.70;3.90;;;;;;;42.16;9.36;100062.50;4954952;28;20674;-66
2022/09/04 07:58:37;;;;;;;5.82;4.15;;;;;;;42.40;9.20;100054.78;4954805;28;20465;-66
2022/09/04 08:01:23;;;;;;;5.20;4.55;;;;;;;43.35;8.92;100062.28;4969495;28;20061;-66
2022/09/04 08:04:13;;;;;;;5.25;4.40;;;;;;;43.81;8.73;100059.22;4959426;28;20057;-66
2022/09/04 08:07:01;;;;;;;5.35;4.70;;;;;;;43.68;8.53;100045.25;4938592;28;20079;-65
2022/09/04 08:09:37;;;;;;;5.30;4.90;;;;;;;44.20;8.40;100054.03;4941769;28;20050;-65
2022/09/04 08:12:36;;;;;;;9.32;5.22;;;;;;;44.05;8.29;100044.03;4954197;28;20510;-66
2022/09/04 08:15:13;;;;;;;5.72;5.18;;;;;;;43.28;8.21;100044.25;4953702;28;20056;-65
2022/09/04 08:17:52;;;;;;;6.13;4.80;;;;;;;43.69;8.12;100038.47;4953953;28;20535;-67
2022/09/04 08:20:55;;;;;;;5.90;5.50;;;;;;;44.44;8.00;100038.47;4936671;28;20060;-65
2022/09/04 08:23:35;;;;;;;5.25;4.85;;;;;;;44.41;6.93;100033.47;4940083;28;20034;-65
2022/09/04 08:26:13;;;;;;;4.82;4.53;;;;;;;41.66;8.74;100026.66;4939014;28;20073;-66
2022/09/04 08:29:05;;;;;;;5.30;4.75;;;;;;;40.00;10.00;100036.03;5050311;28;20048;-66
2022/09/04 08:31:41;;;;;;;5.17;4.03;;;;;;;36.87;11.04;100019.88;5057215;28;20131;-66
2022/09/04 08:34:36;;;;;;;3.33;3.05;;;;;;;34.39;12.78;100020.41;5039918;28;20036;-68
2022/09/04 08:37:28;;;;;;;6.80;3.22;;;;;;;32.69;14.47;100011.31;5023532;28;20077;-66
2022/09/04 08:40:16;;;;;;;3.33;3.13;;;;;;;33.23;13.90;100006.34;5055438;28;20503;-67
2022/09/04 08:43:02;;;;;;;3.53;3.25;;;;;;;31.89;14.71;100005.66;5021864;28;20050;-67
2022/09/04 08:46:04;;;;;;;3.92;2.75;;;;;;;30.36;16.24;100004.47;5020623;28;20040;-67
2022/09/04 08:49:01;;;;;;;2.92;2.60;;;;;;;28.44;18.31;99999.53;5020944;28;20075;-67
2022/09/04 08:51:44;;;;;;;4.40;2.67;;;;;;;27.53;19.45;99993.09;5019757;28;20041;-65
2022/09/04 08:54:53;;;;;;;5.93;3.07;;;;;;;30.28;17.78;99987.19;5039131;28;20045;-67
2022/09/04 08:57:27;;;;;;;10.82;3.20;;;;;;;34.18;14.05;100003.50;5020799;28;20278;-67
2022/09/04 09:00:34;;;;;;;2.92;2.72;;;;;;;37.40;11.98;99996.38;5002621;28;20052;-67
2022/09/04 09:03:30;;;;;;;4.70;3.30;;;;;;;37.32;11.53;99996.09;5014352;28;20530;-67
2022/09/04 09:06:13;;;;;;;3.30;3.00;;;;;;;34.60;13.00;99994.66;5000211;28;20055;-67
2022/09/04 09:09:07;;;;;;;2.45;2.35;;;;;;;32.73;14.01;99982.16;5018681;28;20040;-66
2022/09/04 09:11:52;;;;;;;2.90;2.70;;;;;;;30.45;15.74;99978.34;5000598;28;20056;-70
2022/09/04 09:14:53;;;;;;;8.43;2.95;;;;;;;29.00;16.55;99975.00;5029418;28;20071;-69
2022/09/04 09:17:38;;;;;;;3.10;2.33;;;;;;;27.13;18.41;99976.63;5037928;28;20052;-68
2022/09/04 09:20:12;;;;;;;4.38;2.72;;;;;;;26.71;19.19;99980.50;5020493;28;20069;-68
2022/09/04 09:23:15;;;;;;;2.65;2.45;;;;;;;28.11;18.51;99980.38;5038149;28;20078;-70
2022/09/04 09:25:47;;;;;;;7.70;2.95;;;;;;;30.70;16.30;99972.75;4956542;28;20050;-68
2022/09/04 09:28:44;;;;;;;2.67;2.47;;;;;;;33.66;13.66;99985.50;4940714;28;20046;-68
2022/09/04 09:31:34;;;;;;;6.78;2.78;;;;;;;35.06;12.34;99986.91;4956920;28;20528;-68
2022/09/04 09:34:24;;;;;;;3.85;3.00;;;;;;;35.10;11.91;99988.91;4956853;28;20050;-69
2022/09/04 09:37:04;;;;;;;3.35;3.05;;;;;;;33.28;13.57;99991.78;4956762;28;20141;-68
2022/09/04 09:39:37;;;;;;;2.88;2.67;;;;;;;31.60;14.76;99990.03;4940581;28;20136;-68
2022/09/04 09:42:11;;;;;;;;;;;;;;;31.58;15.42;99986.69;4956742;28;20118;-68
2022/09/04 09:45:02;;;;;;;3.05;2.85;;;;;;;30.78;15.91;99981.53;4955647;28;19917;-68
2022/09/04 09:47:46;;;;;;;2.38;2.17;;;;;;;30.93;15.66;99976.41;4957128;28;20050;-68
2022/09/04 09:50:41;;;;;;;2.63;2.42;;;;;;;31.35;15.55;99963.53;4955781;28;20042;-69
2022/09/04 09:53:31;;;;;;;9.57;2.80;;;;;;;32.07;15.03;99966.91;4960077;28;20100;-69
2022/09/04 09:56:02;;;;;;;2.70;2.50;;;;;;;32.86;13.71;99967.22;4937613;28;20035;-68
2022/09/04 09:58:51;;;;;;;3.30;2.60;;;;;;;34.59;12.92;99968.91;4935845;28;20101;-68
2022/09/04 10:01:40;;;;;;;3.22;2.90;;;;;;;35.84;12.07;99968.75;4940613;28;20046;-69
2022/09/04 10:04:14;;;;;;;4.28;2.88;;;;;;;36.22;11.86;99965.72;5035851;28;20046;-68
2022/09/04 10:07:02;;;;;;;4.22;3.78;;;;;;;36.34;11.44;99968.25;5018897;28;20061;-69
2022/09/04 10:09:58;;;;;;;9.77;3.88;;;;;;;35.84;11.91;99966.81;4994651;28;20061;-69
2022/09/04 10:12:38;;;;;;;6.50;3.13;;;;;;;34.60;12.39;99961.44;4994923;28;20527;-71
2022/09/04 10:15:21;;;;;;;6.97;2.92;;;;;;;32.62;13.52;99955.41;4995670;28;20057;-72
2022/09/04 10:18:01;;;;;;;2.60;2.50;;;;;;;31.36;14.69;99956.94;4995899;28;20625;-73
2022/09/04 10:21:09;;;;;;;5.90;2.80;;;;;;;29.72;15.89;99957.09;4979474;28;20123;-72
2022/09/04 10:23:46;;;;;;;9.48;3.38;;;;;;;28.00;17.01;99951.72;4979084;28;20087;-73
2022/09/04 10:26:38;;;;;;;3.03;2.45;;;;;;;27.06;18.06;99952.00;4979867;28;20045;-74
2022/09/04 10:29:35;;;;;;;4.22;2.78;;;;;;;26.14;18.94;99940.72;4946068;28;20144;-73
2022/09/04 10:32:06;;;;;;;4.47;2.47;;;;;;;25.18;19.83;99960.56;4995313;28;20056;-75
2022/09/04 10:34:39;;;;;;;12.20;3.00;;;;;;;24.54;20.20;99964.09;4946290;28;20200;-74
2022/09/04 10:37:32;;;;;;;5.90;2.80;;;;;;;23.94;20.59;99956.13;4995517;28;20083;-75
2022/09/04 10:40:39;;;;;;;3.72;2.05;;;;;;;23.32;21.14;99958.31;4978520;28;20144;-73
2022/09/04 10:43:25;;;;;;;5.55;2.25;;;;;;;22.53;22.61;99959.53;4994383;28;20048;-74
2022/09/04 10:46:07;;;;;;;14.20;3.60;;;;;;;22.10;22.98;99948.22;4969734;28;20048;-76
2022/09/04 10:48:40;;;;;;;4.18;2.20;;;;;;;21.85;22.81;99942.00;5035885;28;20041;-74
2022/09/04 10:51:33;;;;;;;1.88;1.77;;;;;;;21.73;23.34;99943.38;5018512;28;20135;-73
2022/09/04 10:54:30;;;;;;;2.17;1.77;;;;;;;21.46;23.37;99939.19;5002739;28;20040;-72
2022/09/04 10:56:55;;;;;;;6.65;2.45;;;;;;;21.25;23.54;99933.44;5037404;28;20135;-72
2022/09/04 10:59:41;;;;;;;6.20;2.88;;;;;;;21.25;23.80;99937.00;5035911;28;20127;-74
2022/09/04 11:03:02;;;;;;;5.18;2.22;;;;;;;21.43;23.55;99944.13;5050421;28;20039;-71
2022/09/04 11:05:36;;;;;;;5.40;3.05;;;;;;;21.25;24.32;99939.72;4973414;28;20152;-71
2022/09/04 11:08:22;;;;;;;2.13;1.92;;;;;;;21.19;24.31;99947.72;4974494;28;20041;-70
2022/09/04 11:11:12;;;;;;;3.00;2.22;;;;;;;21.20;24.43;99947.53;4957829;28;20045;-70
2022/09/04 11:14:05;;;;;;;8.23;2.72;;;;;;;21.23;24.50;99944.47;4958551;28;20062;-72
2022/09/04 11:16:58;;;;;;;6.13;3.13;;;;;;;21.05;24.81;99941.06;4958391;28;20073;-72
2022/09/04 11:19:44;;;;;;;3.83;2.47;;;;;;;20.66;25.32;99947.13;4958375;28;20049;-73
2022/09/04 11:22:45;;;;;;;2.28;2.08;;;;;;;20.56;24.95;99951.00;4975476;28;20076;-70
2022/09/04 11:25:25;;;;;;;3.90;2.13;;;;;;;20.25;24.95;99942.59;4943561;28;20038;-75
2022/09/04 11:28:39;;;;;;;3.67;2.00;;;;;;;20.06;25.43;99937.44;4959847;28;20050;-71
2022/09/04 11:31:28;;;;;;;2.13;1.92;;;;;;;19.77;26.44;99927.84;4953422;28;20117;-73
2022/09/04 11:34:00;;;;;;;15.95;4.82;;;;;;;19.49;26.84;99927.19;4958814;28;20050;-71
2022/09/04 11:36:34;;;;;;;4.72;2.55;;;;;;;19.35;26.93;99922.31;4942026;28;20445;-75
2022/09/04 11:39:26;;;;;;;3.42;2.60;;;;;;;19.28;27.83;99931.25;4941932;28;20046;-71
2022/09/04 11:42:19;;;;;;;4.05;3.30;;;;;;;19.21;27.83;99929.16;4995758;28;20403;-75
2022/09/04 11:45:29;;;;;;;2.50;2.30;;;;;;;19.01;27.90;99924.94;5039682;28;20114;-74
2022/09/04 11:48:28;;;;;;;3.85;2.38;;;;;;;18.86;28.06;99923.78;5043657;28;20052;-76
2022/09/04 11:51:22;;;;;;;2.72;2.38;;;;;;;18.74;28.81;99916.94;5034192;28;20032;-76
2022/09/04 11:54:29;;;;;;;3.47;2.47;;;;;;;18.91;28.13;99921.50;4996813;28;20045;-73
2022/09/04 11:57:02;;;;;;;5.10;2.42;;;;;;;18.91;27.29;99918.78;5013920;28;20071;-76
2022/09/04 11:59:33;;;;;;;3.72;2.55;;;;;;;19.03;26.70;99919.38;4998391;28;20424;-77
2022/09/04 12:02:24;;;;;;;3.92;2.30;;;;;;;19.19;26.65;99911.38;4981376;28;20045;-75
2022/09/04 12:05:07;;;;;;;6.53;2.63;;;;;;;19.15;27.13;99916.28;4920166;28;20421;-74
2022/09/04 12:07:46;;;;;;;3.13;2.13;;;;;;;18.96;27.57;99915.63;4936427;28;20050;-73
2022/09/04 12:10:46;;;;;;;3.28;2.03;;;;;;;18.82;27.48;99911.63;4936758;28;20142;-75
2022/09/04 12:13:25;;;;;;;5.90;2.35;;;;;;;18.57;27.84;99909.66;4935983;28;20078;-70
2022/09/04 12:16:29;;;;;;;6.97;3.67;;;;;;;18.45;28.06;99901.78;4920014;28;20112;-73
2022/09/04 12:19:20;;;;;;;2.80;2.40;;;;;;;18.53;28.04;99909.13;4936835;28;20057;-80
2022/09/04 12:21:51;;;;;;;3.38;2.50;;;;;;;18.55;28.07;99908.97;4935095;28;20061;-73
2022/09/04 12:24:38;;;;;;;8.18;2.80;;;;;;;18.62;28.34;99913.66;4934659;28;20129;-74
2022/09/04 12:27:11;;;;;;;7.50;2.60;;;;;;;18.68;28.63;99913.00;4935515;28;20058;-74
2022/09/04 12:29:45;;;;;;;11.77;3.33;;;;;;;18.81;28.59;99910.78;4919361;28;20137;-76
2022/09/04 12:32:43;;;;;;;5.18;2.40;;;;;;;18.84;28.29;99913.19;4955722;28;20049;-76
2022/09/04 12:35:28;;;;;;;3.08;1.65;;;;;;;18.78;28.07;99912.94;4937772;28;20100;-74
2022/09/04 12:38:14;;;;;;;;;;;;;;;19.00;27.73;99901.63;4938914;28;20057;-71
2022/09/04 12:40:42;;;;;;;1.83;1.73;;;;;;;18.78;27.46;99896.72;4955669;28;19924;-71
2022/09/04 12:43:23;;;;;;;5.35;2.20;;;;;;;18.78;27.58;99907.53;5034415;28;20048;-71
2022/09/04 12:46:09;;;;;;;3.50;2.20;;;;;;;18.69;27.71;99905.75;5036792;28;20037;-78
2022/09/04 12:48:40;;;;;;;4.82;2.55;;;;;;;18.48;28.40;99893.41;5018328;28;20084;-80